Time;durP1;ratioP1;P1;durP2;ratioP2;P2;SDS_P1;SDS_P2;PMS_P1;PMS_P2;Temp;Humidity;BMP_temperature;BMP_pressure;BME280_temperature;BME280_humidity;BME280_pressure;Samples;Min_cycle;Max_cycle;Signal;HPM_P1;HPM_P2
2024/01/10 00:00:56;;;;;;;19.65;8.82;;;-4.20;95.30;;;;;;4966853;28;20208;-67
2024/01/10 00:03:24;;;;;;;19.48;7.90;;;-4.20;95.40;;;;;;4990221;28;20982;-68
2024/01/10 00:05:51;;;;;;;21.55;9.00;;;-4.20;95.80;;;;;;4974159;28;20221;-67
2024/01/10 00:08:19;;;;;;;21.52;8.70;;;-4.00;95.90;;;;;;4969058;28;20887;-68
2024/01/10 00:10:47;;;;;;;21.00;9.60;;;-4.10;94.20;;;;;;4970803;28;20204;-67
2024/01/10 00:13:15;;;;;;;20.73;8.93;;;-4.10;94.80;;;;;;4970474;28;20245;-67
2024/01/10 00:15:44;;;;;;;20.20;9.70;;;-4.10;95.70;;;;;;4971270;28;20618;-67
2024/01/10 00:18:13;;;;;;;19.60;9.50;;;-4.10;95.40;;;;;;4971060;28;20263;-68
2024/01/10 00:20:41;;;;;;;21.30;9.60;;;-4.10;95.50;;;;;;4970424;28;20317;-67
2024/01/10 00:23:09;;;;;;;21.60;8.88;;;-4.20;94.60;;;;;;4971097;28;20233;-67
2024/01/10 00:25:37;;;;;;;22.55;9.02;;;-4.20;95.00;;;;;;4968768;28;20215;-67
2024/01/10 00:28:05;;;;;;;22.20;9.65;;;-4.00;95.60;;;;;;4970764;28;20214;-68
2024/01/10 00:30:33;;;;;;;20.23;8.70;;;-4.10;94.40;;;;;;4969777;28;20204;-67
2024/01/10 00:33:01;;;;;;;19.98;8.95;;;-4.00;94.90;;;;;;4970700;28;20642;-67
2024/01/10 00:35:31;;;;;;;19.38;9.48;;;-4.00;93.40;;;;;;4970769;28;20217;-68
2024/01/10 00:37:59;;;;;;;24.13;9.85;;;-4.00;93.10;;;;;;4980868;28;20296;-67
2024/01/10 00:40:27;;;;;;;20.17;10.40;;;-4.00;93.70;;;;;;4971103;28;20284;-67
2024/01/10 00:42:55;;;;;;;19.05;8.52;;;-4.10;93.80;;;;;;4967933;28;20263;-67
2024/01/10 00:45:23;;;;;;;23.58;10.45;;;-3.90;95.20;;;;;;4970765;28;20305;-67
2024/01/10 00:47:51;;;;;;;19.88;10.15;;;-3.90;95.90;;;;;;4970286;28;20324;-68
2024/01/10 00:50:19;;;;;;;26.75;9.40;;;-3.80;95.80;;;;;;4976132;28;20235;-68
2024/01/10 00:52:48;;;;;;;17.65;8.50;;;-3.90;95.00;;;;;;4970662;28;20202;-68
2024/01/10 00:55:16;;;;;;;19.98;9.50;;;-4.00;94.90;;;;;;4977206;28;20816;-68
2024/01/10 00:57:43;;;;;;;22.48;10.77;;;-4.10;96.40;;;;;;4970384;28;20293;-68
2024/01/10 01:00:13;;;;;;;27.05;10.98;;;-4.10;97.90;;;;;;4969931;28;20263;-67
2024/01/10 01:02:41;;;;;;;20.77;11.10;;;-3.90;98.60;;;;;;4970358;28;20210;-67
2024/01/10 01:05:09;;;;;;;24.35;10.00;;;-3.80;98.90;;;;;;4970055;28;20786;-68
2024/01/10 01:07:37;;;;;;;18.35;8.45;;;-4.00;98.70;;;;;;4970361;28;20214;-68
2024/01/10 01:10:09;;;;;;;22.65;10.57;;;-4.10;98.70;;;;;;4969013;28;20195;-67
2024/01/10 01:12:37;;;;;;;23.80;10.30;;;-4.20;98.30;;;;;;4969950;28;20675;-67
2024/01/10 01:15:06;;;;;;;22.02;11.30;;;-4.10;95.60;;;;;;4970204;28;20215;-67
2024/01/10 01:17:34;;;;;;;24.42;10.15;;;-4.20;94.70;;;;;;4973059;28;20923;-67
2024/01/10 01:20:04;;;;;;;20.85;8.80;;;-4.20;94.80;;;;;;4969693;28;20209;-66
2024/01/10 01:22:32;;;;;;;23.52;9.88;;;-4.30;95.40;;;;;;4969916;28;20214;-67
2024/01/10 01:25:00;;;;;;;23.58;10.50;;;-4.40;95.60;;;;;;4970176;28;20219;-67
2024/01/10 01:27:30;;;;;;;24.67;8.95;;;-4.30;95.40;;;;;;4969897;28;20198;-67
2024/01/10 01:29:58;;;;;;;20.30;11.73;;;-4.40;95.50;;;;;;4969611;28;20201;-67
2024/01/10 01:32:25;;;;;;;19.85;8.70;;;-4.40;95.80;;;;;;4966182;28;20204;-67
2024/01/10 01:34:53;;;;;;;19.33;9.13;;;-4.20;94.90;;;;;;4966633;28;20221;-67
2024/01/10 01:37:22;;;;;;;19.60;8.35;;;-4.10;94.60;;;;;;4969576;28;20204;-66
2024/01/10 01:39:50;;;;;;;20.83;9.98;;;-4.10;94.30;;;;;;4969242;28;20215;-68
2024/01/10 01:42:18;;;;;;;23.67;9.23;;;-4.00;94.80;;;;;;4969461;28;20208;-67
2024/01/10 01:44:47;;;;;;;21.73;9.60;;;-4.00;94.90;;;;;;4969429;28;20305;-68
2024/01/10 01:47:16;;;;;;;21.55;8.85;;;-4.00;95.70;;;;;;4962306;28;20220;-68
2024/01/10 01:49:44;;;;;;;26.17;9.90;;;-4.10;95.40;;;;;;4969385;28;20719;-68
2024/01/10 01:52:12;;;;;;;19.00;9.38;;;-3.90;97.20;;;;;;4969288;28;20212;-67
2024/01/10 01:54:41;;;;;;;20.15;9.55;;;-3.80;97.80;;;;;;4969359;28;20788;-67
2024/01/10 01:57:09;;;;;;;17.23;9.15;;;-3.80;95.90;;;;;;4969650;28;20619;-68
2024/01/10 01:59:37;;;;;;;18.02;9.73;;;-3.90;96.20;;;;;;4968855;28;20283;-66
2024/01/10 02:02:06;;;;;;;17.88;9.05;;;-3.90;95.90;;;;;;4968999;28;20214;-67
2024/01/10 02:04:35;;;;;;;19.13;9.50;;;-3.80;96.30;;;;;;4969354;28;20256;-68
2024/01/10 02:07:04;;;;;;;21.25;9.52;;;-3.80;94.50;;;;;;4969428;28;20695;-67
2024/01/10 02:09:32;;;;;;;19.80;8.68;;;-3.80;94.60;;;;;;4969433;28;20214;-67
2024/01/10 02:12:00;;;;;;;20.38;9.45;;;-3.80;95.20;;;;;;4967269;28;20218;-67
2024/01/10 02:14:27;;;;;;;20.55;9.13;;;-3.80;94.80;;;;;;4969371;28;20230;-68
2024/01/10 02:16:55;;;;;;;20.05;9.85;;;-3.80;94.70;;;;;;4969031;28;20250;-68
2024/01/10 02:19:29;;;;;;;20.35;8.65;;;-3.80;94.80;;;;;;4967749;28;20303;-68
2024/01/10 02:21:57;;;;;;;20.48;8.95;;;-3.60;96.10;;;;;;4968986;28;20208;-68
2024/01/10 02:24:24;;;;;;;19.13;9.13;;;-3.60;96.00;;;;;;4969103;28;20227;-68
2024/01/10 02:26:54;;;;;;;23.58;10.13;;;-3.70;95.60;;;;;;4968691;28;20299;-68
2024/01/10 02:29:23;;;;;;;20.23;9.23;;;-3.80;96.90;;;;;;4969202;28;20216;-67
2024/01/10 02:31:51;;;;;;;22.48;9.98;;;-3.80;96.30;;;;;;4968603;28;20239;-68
2024/01/10 02:34:19;;;;;;;21.38;9.27;;;-3.90;96.60;;;;;;4969014;28;20766;-67
2024/01/10 02:36:47;;;;;;;20.95;8.50;;;-3.90;96.90;;;;;;4968981;28;20202;-67
2024/01/10 02:39:15;;;;;;;18.13;9.00;;;-3.90;97.30;;;;;;4967462;28;20203;-67
2024/01/10 02:41:43;;;;;;;17.20;7.55;;;-4.00;97.10;;;;;;4966884;28;20553;-67
2024/01/10 02:44:14;;;;;;;18.08;8.93;;;-4.10;96.70;;;;;;4968786;28;20231;-68
2024/01/10 02:46:42;;;;;;;21.20;9.90;;;-4.20;96.50;;;;;;4968803;28;20223;-66
2024/01/10 02:49:10;;;;;;;20.42;10.05;;;-4.30;96.40;;;;;;4968717;28;20216;-67
2024/01/10 02:51:38;;;;;;;22.73;9.25;;;-4.40;96.50;;;;;;4968439;28;20199;-67
2024/01/10 02:54:06;;;;;;;19.25;9.00;;;-4.40;97.20;;;;;;4970710;28;20235;-67
2024/01/10 02:56:34;;;;;;;23.15;10.43;;;-4.30;97.30;;;;;;4972696;28;20302;-67
2024/01/10 02:59:02;;;;;;;21.83;10.25;;;-4.50;97.30;;;;;;4972177;28;20307;-67
2024/01/10 03:01:31;;;;;;;20.25;10.27;;;-4.60;97.40;;;;;;4972291;28;20218;-67
2024/01/10 03:03:59;;;;;;;21.52;9.55;;;-4.70;97.20;;;;;;4972309;28;20230;-66
2024/01/10 03:06:27;;;;;;;20.17;8.70;;;-4.60;97.50;;;;;;4967119;28;20313;-67
2024/01/10 03:08:56;;;;;;;17.67;8.35;;;-4.80;97.50;;;;;;4971995;28;20215;-67
2024/01/10 03:11:24;;;;;;;16.85;8.82;;;-4.80;97.90;;;;;;4971853;28;20212;-67
2024/01/10 03:14:01;;;;;;;23.65;9.60;;;-4.80;98.50;;;;;;4972382;28;20234;-67
2024/01/10 03:16:30;;;;;;;20.20;10.15;;;-4.70;98.60;;;;;;4964699;28;20957;-67
2024/01/10 03:18:59;;;;;;;19.48;10.00;;;-4.70;98.10;;;;;;4969236;28;20234;-67
2024/01/10 03:21:27;;;;;;;19.20;8.60;;;-4.70;98.70;;;;;;4971026;28;20259;-67
2024/01/10 03:23:56;;;;;;;19.30;10.07;;;-4.70;98.90;;;;;;4971785;28;20267;-67
2024/01/10 03:26:24;;;;;;;19.00;8.90;;;-4.60;98.90;;;;;;4972058;28;20234;-67
2024/01/10 03:28:52;;;;;;;27.30;10.85;;;-4.60;99.10;;;;;;4971931;28;20667;-67
2024/01/10 03:31:21;;;;;;;23.00;9.65;;;-4.50;99.30;;;;;;4964541;28;20203;-66
2024/01/10 03:33:51;;;;;;;17.23;9.52;;;-4.30;99.70;;;;;;4971904;28;20324;-67
2024/01/10 03:36:19;;;;;;;22.60;10.93;;;-4.30;99.30;;;;;;4971681;28;20505;-67
2024/01/10 03:38:47;;;;;;;18.77;8.95;;;-4.20;99.00;;;;;;4971731;28;20212;-67
2024/01/10 03:41:16;;;;;;;17.35;10.50;;;-4.20;98.80;;;;;;4970874;28;20223;-67
2024/01/10 03:43:44;;;;;;;21.10;11.00;;;-4.20;97.90;;;;;;4971523;28;20301;-67
2024/01/10 03:46:13;;;;;;;19.50;9.57;;;-4.10;98.60;;;;;;4970061;28;20210;-67
2024/01/10 03:48:47;;;;;;;25.65;9.90;;;-3.90;98.70;;;;;;4971264;28;20254;-67
2024/01/10 03:51:18;;;;;;;22.42;9.80;;;-3.90;97.60;;;;;;4971506;28;20216;-67
2024/01/10 03:53:46;;;;;;;19.02;8.90;;;-4.00;97.10;;;;;;4971286;28;20703;-67
2024/01/10 03:56:13;;;;;;;18.23;9.15;;;-4.00;96.80;;;;;;4970741;28;20957;-67
2024/01/10 03:58:42;;;;;;;22.10;8.73;;;-4.00;96.80;;;;;;4971271;28;20212;-67
2024/01/10 04:01:10;;;;;;;18.33;8.73;;;-4.00;96.70;;;;;;4971229;28;20212;-67
2024/01/10 04:03:41;;;;;;;20.63;9.50;;;-3.90;98.20;;;;;;4969545;28;20310;-67
2024/01/10 04:06:09;;;;;;;20.08;9.35;;;-3.80;97.10;;;;;;4971228;28;20212;-67
2024/01/10 04:08:38;;;;;;;18.13;8.55;;;-3.80;97.80;;;;;;4971158;28;20228;-67
2024/01/10 04:11:06;;;;;;;19.90;9.73;;;-3.60;97.70;;;;;;4970912;28;20681;-67
2024/01/10 04:13:34;;;;;;;21.50;10.45;;;-3.50;97.40;;;;;;4971368;28;20232;-67
2024/01/10 04:16:02;;;;;;;21.15;9.20;;;-3.40;97.90;;;;;;4970942;28;20211;-65
2024/01/10 04:18:30;;;;;;;22.45;9.52;;;-3.30;96.60;;;;;;4969904;28;20207;-67
2024/01/10 04:20:58;;;;;;;22.20;9.60;;;-3.20;96.70;;;;;;4967784;28;20204;-67
2024/01/10 04:23:26;;;;;;;17.38;8.90;;;-3.20;96.80;;;;;;4970799;28;20231;-67
2024/01/10 04:25:56;;;;;;;19.52;9.65;;;-3.10;96.20;;;;;;4970928;28;20299;-67
2024/01/10 04:28:23;;;;;;;20.00;9.23;;;-3.20;97.20;;;;;;4970815;28;20232;-67
2024/01/10 04:30:51;;;;;;;22.75;8.45;;;-3.00;97.00;;;;;;4970532;28;20231;-67
2024/01/10 04:33:19;;;;;;;20.48;8.25;;;-2.90;96.30;;;;;;4970675;28;20973;-68
2024/01/10 04:35:47;;;;;;;18.85;8.80;;;-2.90;96.00;;;;;;4968021;28;20200;-68
2024/01/10 04:38:15;;;;;;;23.00;9.35;;;-2.90;95.80;;;;;;4970598;28;20208;-67
2024/01/10 04:40:43;;;;;;;22.52;9.90;;;-2.90;95.70;;;;;;4970666;28;20227;-68
2024/01/10 04:43:13;;;;;;;19.42;8.57;;;-2.90;96.10;;;;;;4970527;28;20737;-67
2024/01/10 04:45:41;;;;;;;17.60;8.88;;;-2.90;96.50;;;;;;4971014;28;20208;-68
2024/01/10 04:48:09;;;;;;;17.13;8.30;;;-2.80;95.80;;;;;;4970592;28;20230;-67
2024/01/10 04:50:37;;;;;;;17.95;9.85;;;-2.80;95.90;;;;;;4970366;28;20271;-68
2024/01/10 04:53:05;;;;;;;19.02;9.60;;;-2.80;94.80;;;;;;4962195;28;20228;-67
2024/01/10 04:55:33;;;;;;;24.20;12.27;;;-2.80;94.90;;;;;;4970439;28;20672;-67
2024/01/10 04:58:01;;;;;;;26.85;13.45;;;-2.80;95.60;;;;;;4970367;28;20254;-67
2024/01/10 05:00:30;;;;;;;23.80;10.07;;;-2.90;94.60;;;;;;4970352;28;20211;-68
2024/01/10 05:02:58;;;;;;;22.05;11.55;;;-3.00;94.80;;;;;;4970133;28;20215;-67
2024/01/10 05:05:26;;;;;;;23.52;10.73;;;-2.90;96.10;;;;;;4970363;28;20215;-68
2024/01/10 05:07:54;;;;;;;20.98;10.00;;;-2.80;95.90;;;;;;4968572;28;20720;-67
2024/01/10 05:10:22;;;;;;;19.30;9.25;;;-2.70;95.90;;;;;;4962052;28;20221;-68
2024/01/10 05:12:50;;;;;;;20.35;9.60;;;-2.90;95.60;;;;;;4970200;28;20237;-68
2024/01/10 05:15:19;;;;;;;20.05;8.90;;;-2.90;94.70;;;;;;4970294;28;20592;-68
2024/01/10 05:17:48;;;;;;;20.45;8.65;;;-2.90;95.60;;;;;;4969622;28;20228;-68
2024/01/10 05:20:16;;;;;;;19.02;8.25;;;-2.90;96.00;;;;;;4969655;28;20204;-68
2024/01/10 05:22:44;;;;;;;21.23;9.85;;;-2.90;95.80;;;;;;4969866;28;20344;-69
2024/01/10 05:25:12;;;;;;;21.27;8.65;;;-2.90;95.40;;;;;;4968540;28;20351;-67
2024/01/10 05:27:40;;;;;;;19.58;8.65;;;-2.80;96.50;;;;;;4969957;28;20223;-68
2024/01/10 05:30:11;;;;;;;21.27;9.48;;;-2.70;96.10;;;;;;4969364;28;20769;-67
2024/01/10 05:32:40;;;;;;;21.58;9.40;;;-2.70;95.50;;;;;;4969739;28;20659;-67
2024/01/10 05:35:10;;;;;;;23.42;9.07;;;-2.70;95.70;;;;;;4969664;28;20258;-68
2024/01/10 05:37:38;;;;;;;20.25;9.98;;;-2.70;95.00;;;;;;4967244;28;20633;-67
2024/01/10 05:40:08;;;;;;;19.38;8.30;;;-2.80;95.80;;;;;;4961364;28;20200;-67
2024/01/10 05:42:37;;;;;;;22.98;9.38;;;-2.70;95.90;;;;;;4968792;28;20203;-68
2024/01/10 05:45:06;;;;;;;24.65;10.27;;;-2.70;95.90;;;;;;4969515;28;20318;-69
2024/01/10 05:47:34;;;;;;;18.48;8.13;;;-2.70;95.50;;;;;;4975567;28;20769;-68
2024/01/10 05:50:06;;;;;;;23.33;10.98;;;-2.70;95.60;;;;;;4976827;28;20203;-68
2024/01/10 05:52:35;;;;;;;18.67;9.52;;;-2.70;96.00;;;;;;4967930;28;20215;-68
2024/01/10 05:55:03;;;;;;;22.73;9.20;;;-2.80;95.70;;;;;;4969472;28;20232;-67
2024/01/10 05:57:32;;;;;;;20.52;8.23;;;-2.80;96.10;;;;;;4968800;28;20207;-68
2024/01/10 06:00:00;;;;;;;21.90;9.57;;;-3.00;96.50;;;;;;4969203;28;20676;-68
2024/01/10 06:02:28;;;;;;;23.17;10.38;;;-3.00;96.70;;;;;;4969289;28;20208;-68
2024/01/10 06:04:56;;;;;;;19.92;8.98;;;-3.00;96.80;;;;;;4960435;28;20224;-67
2024/01/10 06:07:24;;;;;;;20.38;9.23;;;-3.10;96.40;;;;;;4964370;28;20210;-66
2024/01/10 06:09:53;;;;;;;23.48;9.93;;;-3.20;96.10;;;;;;4975938;28;20313;-67
2024/01/10 06:12:21;;;;;;;23.35;9.77;;;-3.40;96.70;;;;;;4979749;28;20216;-68
2024/01/10 06:14:49;;;;;;;21.10;10.05;;;-3.30;96.90;;;;;;4978269;28;20773;-68
2024/01/10 06:17:18;;;;;;;19.73;9.07;;;-3.40;97.40;;;;;;4979785;28;20214;-68
2024/01/10 06:19:47;;;;;;;21.90;9.75;;;-3.60;97.00;;;;;;4969722;28;20229;-68
2024/01/10 06:22:16;;;;;;;23.25;10.48;;;-3.70;97.10;;;;;;4968760;28;20249;-68
2024/01/10 06:24:44;;;;;;;20.95;9.32;;;-3.70;98.00;;;;;;4971102;28;20274;-68
2024/01/10 06:27:13;;;;;;;21.50;10.00;;;-3.60;98.60;;;;;;4970226;28;20415;-66
2024/01/10 06:29:41;;;;;;;22.13;11.18;;;-3.70;98.40;;;;;;4971965;28;20671;-68
2024/01/10 06:32:11;;;;;;;23.05;9.18;;;-3.60;98.50;;;;;;4969640;28;20308;-68
2024/01/10 06:34:39;;;;;;;24.20;9.50;;;-3.50;98.70;;;;;;4971920;28;20294;-68
2024/01/10 06:37:07;;;;;;;21.75;11.13;;;-3.50;98.40;;;;;;4971928;28;20223;-68
2024/01/10 06:39:35;;;;;;;21.48;10.55;;;-3.50;98.40;;;;;;4971760;28;20216;-68
2024/01/10 06:42:05;;;;;;;21.00;10.35;;;-3.60;98.60;;;;;;4971868;28;20633;-69
2024/01/10 06:44:35;;;;;;;24.75;10.70;;;-3.60;98.50;;;;;;4971660;28;20224;-69
2024/01/10 06:47:03;;;;;;;19.80;8.32;;;-3.40;98.40;;;;;;4968729;28;20205;-69
2024/01/10 06:49:31;;;;;;;24.52;11.95;;;-3.50;97.00;;;;;;4971290;28;20327;-68
2024/01/10 06:52:00;;;;;;;20.55;10.15;;;-3.60;97.10;;;;;;4971317;28;20221;-68
2024/01/10 06:54:28;;;;;;;19.98;9.40;;;-3.60;96.40;;;;;;4971988;28;20259;-68
2024/01/10 06:56:56;;;;;;;22.73;10.07;;;-3.70;96.00;;;;;;4972254;28;20590;-68
2024/01/10 06:59:24;;;;;;;22.88;9.35;;;-3.70;96.50;;;;;;4972487;28;20873;-68
2024/01/10 07:01:55;;;;;;;21.95;10.73;;;-3.80;97.40;;;;;;4970584;28;20206;-67
2024/01/10 07:04:24;;;;;;;20.58;9.70;;;-3.90;97.90;;;;;;4972431;28;20235;-68
2024/01/10 07:06:52;;;;;;;18.45;9.10;;;-3.90;98.00;;;;;;4972323;28;20735;-68
2024/01/10 07:09:20;;;;;;;20.45;9.35;;;-3.80;98.80;;;;;;4972409;28;20262;-68
2024/01/10 07:11:48;;;;;;;20.75;9.88;;;-4.00;98.70;;;;;;4971998;28;20219;-68
2024/01/10 07:14:17;;;;;;;22.23;10.63;;;-4.20;98.50;;;;;;4972331;28;20242;-68
2024/01/10 07:16:45;;;;;;;20.75;9.70;;;-4.30;98.30;;;;;;4974936;28;20241;-68
2024/01/10 07:19:15;;;;;;;18.15;9.60;;;-4.40;99.00;;;;;;4972025;28;20214;-68
2024/01/10 07:21:44;;;;;;;21.35;9.20;;;-4.30;99.50;;;;;;4972351;28;20208;-68
2024/01/10 07:24:12;;;;;;;22.65;10.00;;;-4.20;98.90;;;;;;4972370;28;20598;-68
2024/01/10 07:26:41;;;;;;;19.58;7.97;;;-4.20;98.70;;;;;;4972582;28;20486;-67
2024/01/10 07:29:09;;;;;;;22.70;10.20;;;-4.20;99.30;;;;;;4967541;28;20313;-67
2024/01/10 07:31:37;;;;;;;20.45;9.60;;;-4.10;99.70;;;;;;4971951;28;20212;-66
2024/01/10 07:34:05;;;;;;;21.13;10.82;;;-4.20;99.80;;;;;;4971894;28;20241;-68
2024/01/10 07:36:43;;;;;;;21.42;9.27;;;-4.20;99.90;;;;;;4967660;28;20211;-68
2024/01/10 07:39:11;;;;;;;22.40;10.57;;;-4.30;99.90;;;;;;4970127;28;20261;-68
2024/01/10 07:41:38;;;;;;;19.88;10.20;;;-4.40;99.70;;;;;;4968480;28;20217;-68
2024/01/10 07:44:06;;;;;;;21.85;10.05;;;-4.50;99.40;;;;;;4971098;28;20226;-68
2024/01/10 07:46:34;;;;;;;21.17;10.10;;;-4.60;99.60;;;;;;4968605;28;20214;-67
2024/01/10 07:49:02;;;;;;;22.40;9.88;;;-4.60;99.80;;;;;;4971063;28;20232;-68
2024/01/10 07:51:30;;;;;;;19.50;9.55;;;-4.60;99.90;;;;;;4971454;28;20737;-68
2024/01/10 07:54:00;;;;;;;25.75;12.15;;;-4.60;99.90;;;;;;4971840;28;20235;-68
2024/01/10 07:56:28;;;;;;;21.65;10.13;;;-4.50;99.90;;;;;;4968571;28;20692;-67
2024/01/10 07:58:56;;;;;;;23.75;9.75;;;-4.30;99.90;;;;;;4985079;28;20195;-67
2024/01/10 08:01:24;;;;;;;23.63;10.95;;;-4.30;99.90;;;;;;4982500;28;20718;-67
2024/01/10 08:03:52;;;;;;;26.30;11.02;;;-4.10;99.80;;;;;;4984292;28;20783;-67
2024/01/10 08:06:20;;;;;;;20.60;9.50;;;-3.90;99.50;;;;;;4982390;28;20248;-67
2024/01/10 08:09:04;;;;;;;27.08;9.98;;;-3.80;99.90;;;;;;4974140;28;20313;-67
2024/01/10 08:11:31;;;;;;;22.23;10.18;;;-3.60;99.90;;;;;;4963563;28;20223;-67
2024/01/10 08:14:00;;;;;;;19.70;10.52;;;-3.50;99.30;;;;;;4971345;28;20242;-68
2024/01/10 08:16:28;;;;;;;18.25;9.55;;;-3.50;98.20;;;;;;4970970;28;20227;-68
2024/01/10 08:18:56;;;;;;;21.02;9.25;;;-3.30;98.90;;;;;;4971057;28;20266;-67
2024/01/10 08:21:24;;;;;;;23.77;10.20;;;-3.10;99.40;;;;;;4961553;28;20207;-68
2024/01/10 08:23:52;;;;;;;24.02;10.57;;;-2.90;99.10;;;;;;4971159;28;20223;-66
2024/01/10 08:26:22;;;;;;;22.10;10.48;;;-2.70;98.60;;;;;;4971293;28;20208;-68
2024/01/10 08:28:50;;;;;;;24.05;12.10;;;-2.60;97.90;;;;;;4968106;28;20215;-67
2024/01/10 08:31:18;;;;;;;23.63;10.05;;;-2.40;98.50;;;;;;4969388;28;20208;-67
2024/01/10 08:33:47;;;;;;;21.73;10.68;;;-2.20;97.00;;;;;;4970885;28;20721;-68
2024/01/10 08:36:15;;;;;;;20.50;10.00;;;-2.20;97.90;;;;;;4970752;28;20591;-68
2024/01/10 08:38:43;;;;;;;25.65;12.35;;;-2.00;98.10;;;;;;4963456;28;20208;-67
2024/01/10 08:41:11;;;;;;;27.45;11.93;;;-1.80;97.90;;;;;;4970524;28;20292;-68
2024/01/10 08:43:41;;;;;;;23.70;12.13;;;-1.50;97.80;;;;;;4970818;28;20246;-68
2024/01/10 08:46:09;;;;;;;23.60;10.70;;;-1.20;97.70;;;;;;4971032;28;20222;-67
2024/01/10 08:48:38;;;;;;;22.90;11.43;;;-1.10;96.20;;;;;;4970820;28;20239;-68
2024/01/10 08:51:06;;;;;;;23.95;10.30;;;-1.00;96.20;;;;;;4967779;28;20231;-67
2024/01/10 08:53:34;;;;;;;19.52;10.50;;;-0.80;95.70;;;;;;4970847;28;20342;-68
2024/01/10 08:56:02;;;;;;;27.35;12.32;;;-0.60;95.10;;;;;;4970861;28;20302;-68
2024/01/10 08:58:30;;;;;;;21.42;10.23;;;-0.50;94.90;;;;;;4970571;28;20307;-67
2024/01/10 09:00:59;;;;;;;25.10;12.10;;;-0.50;93.70;;;;;;4970346;28;20736;-67
2024/01/10 09:03:27;;;;;;;22.27;11.55;;;-0.40;93.70;;;;;;4970385;28;20232;-70
2024/01/10 09:05:55;;;;;;;25.92;13.15;;;-0.30;92.30;;;;;;4970706;28;20224;-68
2024/01/10 09:08:35;;;;;;;22.83;12.23;;;-0.30;93.10;;;;;;4971300;28;20228;-68
2024/01/10 09:11:03;;;;;;;26.15;12.07;;;-0.20;92.80;;;;;;4970305;28;20255;-68
2024/01/10 09:13:32;;;;;;;24.45;12.10;;;-0.30;92.20;;;;;;4970397;28;20267;-68
2024/01/10 09:16:01;;;;;;;25.98;13.98;;;-0.30;91.70;;;;;;4970476;28;20216;-67
2024/01/10 09:18:29;;;;;;;26.00;12.50;;;-0.30;91.90;;;;;;4971268;28;20300;-68
2024/01/10 09:20:57;;;;;;;22.80;11.88;;;-0.40;92.10;;;;;;4965157;28;20775;-68
2024/01/10 09:23:25;;;;;;;25.55;12.63;;;-0.40;91.50;;;;;;4971074;28;20246;-68
2024/01/10 09:25:55;;;;;;;24.67;11.40;;;-0.30;91.90;;;;;;4971570;28;20212;-67
2024/01/10 09:28:23;;;;;;;27.95;14.27;;;-0.30;91.20;;;;;;4970681;28;20208;-68
2024/01/10 09:30:51;;;;;;;25.48;12.23;;;-0.40;91.50;;;;;;4970865;28;20236;-68
2024/01/10 09:33:22;;;;;;;24.77;12.13;;;-0.30;92.00;;;;;;4971589;28;20236;-68
2024/01/10 09:35:50;;;;;;;28.52;13.20;;;-0.30;91.60;;;;;;4976353;28;20219;-68
2024/01/10 09:38:19;;;;;;;23.52;12.45;;;-0.40;91.60;;;;;;4970340;28;20221;-68
2024/01/10 09:40:47;;;;;;;26.33;12.65;;;-0.50;91.30;;;;;;4970307;28;20300;-68
2024/01/10 09:43:15;;;;;;;24.42;13.18;;;-0.50;90.80;;;;;;4969896;28;20823;-67
2024/01/10 09:45:47;;;;;;;25.50;13.15;;;-0.60;90.50;;;;;;4970089;28;20214;-67
2024/01/10 09:48:16;;;;;;;23.42;11.48;;;-0.70;91.30;;;;;;4969774;28;20651;-68
2024/01/10 09:50:47;;;;;;;24.50;12.85;;;-0.80;91.60;;;;;;4964544;28;20220;-68
2024/01/10 09:53:23;;;;;;;25.80;13.02;;;-0.80;92.40;;;;;;4964052;28;20228;-66
2024/01/10 09:55:52;;;;;;;27.45;12.90;;;-0.70;92.00;;;;;;4968655;28;20242;-68
2024/01/10 09:58:20;;;;;;;25.35;14.00;;;-0.70;91.30;;;;;;4969274;28;20209;-68
2024/01/10 10:00:48;;;;;;;25.65;13.00;;;-0.60;91.90;;;;;;4969348;28;20208;-68
2024/01/10 10:03:18;;;;;;;27.08;13.90;;;-0.60;91.70;;;;;;4969066;28;20235;-68
2024/01/10 10:05:48;;;;;;;27.50;13.55;;;-0.50;91.20;;;;;;4969571;28;20275;-67
2024/01/10 10:08:21;;;;;;;28.83;15.38;;;-0.40;91.20;;;;;;4967961;28;20697;-68
2024/01/10 10:10:50;;;;;;;25.95;13.05;;;-0.40;90.90;;;;;;4969123;28;20231;-68
2024/01/10 10:13:26;;;;;;;27.45;15.20;;;-0.40;91.10;;;;;;4969233;28;20228;-67
2024/01/10 10:16:01;;;;;;;30.05;14.27;;;-0.30;91.20;;;;;;4969557;28;20208;-68
2024/01/10 10:18:30;;;;;;;26.63;13.55;;;-0.20;91.00;;;;;;4974717;28;20235;-68
2024/01/10 10:21:11;;;;;;;27.38;14.35;;;-0.10;91.00;;;;;;4969162;28;20232;-67
2024/01/10 10:23:40;;;;;;;28.40;15.40;;;-0.10;91.00;;;;;;4969379;28;20225;-68
2024/01/10 10:26:13;;;;;;;34.30;15.68;;;0.00;90.00;;;;;;4969037;28;20216;-67
2024/01/10 10:28:42;;;;;;;30.13;15.23;;;0.30;89.70;;;;;;4957405;28;20212;-68
2024/01/10 10:31:11;;;;;;;25.27;13.02;;;0.80;89.70;;;;;;4965899;28;20316;-68
2024/01/10 10:33:40;;;;;;;26.23;13.18;;;1.50;87.10;;;;;;4968972;28;20332;-69
2024/01/10 10:36:10;;;;;;;26.67;14.60;;;2.20;85.60;;;;;;4969192;28;20215;-69
2024/01/10 10:38:38;;;;;;;28.10;15.97;;;2.90;83.10;;;;;;4969116;28;20443;-68
2024/01/10 10:41:10;;;;;;;30.57;15.33;;;3.50;83.80;;;;;;4972858;28;20521;-68
2024/01/10 10:43:39;;;;;;;30.03;16.30;;;4.10;80.50;;;;;;4961731;28;20467;-69
2024/01/10 10:46:09;;;;;;;54.17;25.97;;;4.30;77.10;;;;;;4969267;28;20475;-68
2024/01/10 10:48:37;;;;;;;27.47;15.73;;;4.40;73.70;;;;;;4969063;28;20548;-68
2024/01/10 10:51:07;;;;;;;30.87;16.47;;;4.70;73.50;;;;;;4968862;28;20491;-68
2024/01/10 10:53:38;;;;;;;32.00;16.80;;;4.70;72.90;;;;;;4968981;28;20473;-68
2024/01/10 10:56:08;;;;;;;27.77;17.17;;;4.60;75.00;;;;;;4968908;28;20966;-66
2024/01/10 10:58:40;;;;;;;27.63;15.67;;;4.10;75.30;;;;;;4963045;28;20455;-69
2024/01/10 11:01:09;;;;;;;27.50;16.20;;;3.60;76.60;;;;;;4969415;28;20539;-68
2024/01/10 11:03:40;;;;;;;30.33;16.40;;;3.10;76.00;;;;;;4969203;28;20476;-68
2024/01/10 11:06:09;;;;;;;31.50;16.23;;;2.60;78.40;;;;;;4969215;28;20458;-69
2024/01/10 11:08:43;;;;;;;31.47;15.53;;;2.20;79.10;;;;;;4968822;28;20483;-68
2024/01/10 11:11:21;;;;;;;29.83;16.00;;;1.80;81.10;;;;;;4968739;28;20563;-68
2024/01/10 11:14:09;;;;;;;28.80;16.70;;;1.70;81.90;;;;;;4967819;28;20463;-69
2024/01/10 11:16:57;;;;;;;29.70;15.87;;;1.50;83.10;;;;;;4972653;28;20448;-68
2024/01/10 11:19:52;;;;;;;27.30;16.58;;;1.50;82.30;;;;;;4972331;28;20455;-69
2024/01/10 11:22:38;;;;;;;27.03;14.67;;;1.40;83.50;;;;;;4972435;28;20786;-69
2024/01/10 11:25:08;;;;;;;28.15;16.35;;;1.20;84.90;;;;;;4972542;28;20819;-70
2024/01/10 11:27:37;;;;;;;30.73;15.87;;;1.10;85.50;;;;;;4966366;28;20209;-69
2024/01/10 11:30:07;;;;;;;26.60;14.05;;;1.00;86.70;;;;;;4970153;28;20527;-68
2024/01/10 11:32:36;;;;;;;30.20;14.60;;;1.00;86.00;;;;;;4964879;28;20315;-68
2024/01/10 11:35:11;;;;;;;29.15;15.50;;;0.80;87.20;;;;;;4972567;28;20234;-66
2024/01/10 11:37:43;;;;;;;30.90;15.65;;;0.90;86.60;;;;;;4972620;28;20205;-68
2024/01/10 11:40:13;;;;;;;30.73;16.00;;;0.90;85.70;;;;;;4972193;28;20223;-67
2024/01/10 11:42:45;;;;;;;31.17;16.75;;;0.80;84.90;;;;;;4972454;28;20272;-67
2024/01/10 11:45:37;;;;;;;32.20;16.00;;;0.80;86.10;;;;;;4972840;28;20204;-70
2024/01/10 11:48:08;;;;;;;31.55;16.42;;;0.80;87.40;;;;;;4972218;28;20588;-69
2024/01/10 11:50:37;;;;;;;28.60;16.08;;;0.90;88.50;;;;;;4972571;28;20211;-68
2024/01/10 11:53:05;;;;;;;29.63;16.63;;;0.90;88.00;;;;;;4976493;28;20685;-67
2024/01/10 11:55:52;;;;;;;34.65;17.33;;;0.90;86.70;;;;;;4977363;28;20214;-69
2024/01/10 11:58:20;;;;;;;30.55;16.52;;;0.90;87.50;;;;;;4975609;28;20746;-68
2024/01/10 12:00:49;;;;;;;30.77;15.38;;;0.90;86.70;;;;;;4977310;28;20621;-69
2024/01/10 12:03:18;;;;;;;30.20;17.15;;;1.00;87.70;;;;;;4976291;28;20923;-69
2024/01/10 12:05:46;;;;;;;30.02;16.38;;;1.00;87.60;;;;;;4973281;28;20224;-70
2024/01/10 12:08:15;;;;;;;33.58;17.65;;;1.00;88.50;;;;;;4970984;28;20971;-66
2024/01/10 12:10:43;;;;;;;29.05;16.02;;;1.10;89.50;;;;;;4966985;28;20213;-67
2024/01/10 12:13:12;;;;;;;30.13;16.00;;;1.20;87.10;;;;;;4971520;28;20625;-68
2024/01/10 12:15:41;;;;;;;28.20;16.42;;;1.10;88.00;;;;;;4971246;28;20210;-68
2024/01/10 12:18:11;;;;;;;34.80;17.27;;;1.20;89.40;;;;;;4971278;28;20264;-68
2024/01/10 12:20:39;;;;;;;33.05;17.50;;;1.20;86.90;;;;;;4971014;28;20736;-69
2024/01/10 12:23:07;;;;;;;34.03;16.30;;;1.20;87.50;;;;;;4970981;28;20316;-67
2024/01/10 12:25:36;;;;;;;31.10;17.35;;;1.10;87.60;;;;;;4969104;28;20206;-67
2024/01/10 12:28:05;;;;;;;28.42;15.75;;;1.10;89.20;;;;;;4964778;28;20273;-69
2024/01/10 12:30:34;;;;;;;33.13;17.10;;;1.10;88.50;;;;;;4970117;28;20206;-68
2024/01/10 12:33:02;;;;;;;27.27;15.70;;;1.00;87.40;;;;;;4970297;28;20245;-68
2024/01/10 12:35:30;;;;;;;32.65;18.05;;;0.90;86.30;;;;;;4968643;28;20226;-68
2024/01/10 12:37:58;;;;;;;33.53;15.98;;;0.90;88.80;;;;;;4974148;28;20222;-68
2024/01/10 12:40:27;;;;;;;34.72;18.75;;;0.90;87.60;;;;;;4970379;28;20259;-68
2024/01/10 12:43:03;;;;;;;31.42;16.95;;;0.90;88.20;;;;;;4969370;28;20276;-68